Harbision Canyon (356) Station Data

Red Flag Warning: No
Fire Weather Zone: 250
SDGE Region: Eastern
Lat/Lon: 32.822/-116.829

Observations

Time Wind Speed/Gust Temp(F) RH Fuel Moist Fuel Temp(F) Dewpt(F) Tmax(F) Tmin(F) Accum Precip 10-min Precip SL Press(mb)
5/24 8:30am 198 3 G 6 65° 65% - - 53° 65.5° 53.9° - - -
5/24 8:20am 56 6 G 13 64° 65% - - 52° 64.5° 53.9° - - -
5/24 8:10am 50 6 G 12 62° 73% - - 53° 63.3° 53.9° - - -
5/24 8:00am 77 3 G 6 60° 80% - - 54° 60.9° 53.9° - - -
5/24 7:50am 170 1 G 2 59° 84% - - 55° 60.9° 53.9° - - -
5/24 7:40am 176 1 G 2 59° 86% - - 55° 60.9° 53.9° - - -
5/24 7:30am 253 2 G 5 58° 87% - - 54° 60.9° 53.9° - - -
5/24 7:20am 211 4 G 10 57° 88% - - 54° 60.9° 53.9° - - -
5/24 7:10am 32 7 G 12 57° 90% - - 54° 60.9° 53.9° - - -
5/24 7:00am 67 2 G 9 56° 92% - - 54° 60.9° 53.9° - - -
5/24 6:50am 357 2 G 4 55° 93% - - 53° 60.9° 53.9° - - -
5/24 6:40am 296 2 G 4 55° 92% - - 53° 60.9° 53.9° - - -
5/24 6:30am 162 3 G 8 55° 92% - - 53° 60.9° 53.9° - - -
5/24 6:20am 179 3 G 9 55° 92% - - 52° 60.9° 53.9° - - -
5/24 6:10am 207 2 G 5 55° 91% - - 52° 60.9° 53.9° - - -
5/24 6:00am 344 4 G 9 54° 92% - - 52° 60.9° 53.9° - - -
5/24 5:50am 6 2 G 8 54° 93% - - 52° 60.9° 53.9° - - -
5/24 5:40am 5 4 G 11 54° 93% - - 52° 60.9° 53.9° - - -
5/24 5:30am 22 1 G 5 54° 93% - - 52° 60.9° 54° - - -
5/24 5:20am 44 1 G 5 55° 93% - - 53° 60.9° 54.2° - - -
5/24 5:10am 32 1 G 4 55° 93% - - 53° 60.9° 54.4° - - -
5/24 5:00am 5 3 G 9 55° 93% - - 53° 60.9° 54.4° - - -
5/24 4:50am 352 3 G 10 55° 93% - - 53° 60.9° 54.4° - - -
5/24 4:40am 40 1 G 3 55° 93% - - 53° 60.9° 54.4° - - -
5/24 4:30am 5 2 G 5 56° 93% - - 54° 60.9° 54.4° - - -
5/24 4:20am 350 1 G 4 56° 93% - - 54° 60.9° 54.4° - - -
5/24 4:10am 103 1 G 2 56° 92% - - 53° 60.9° 54.4° - - -
5/24 4:00am 95 0 G 1 56° 92% - - 54° 60.9° 54.4° - - -
5/24 3:50am 297 0 G 1 56° 92% - - 54° 60.9° 54.4° - - -
5/24 3:40am 305 1 G 2 56° 92% - - 53° 60.9° 54.4° - - -
5/24 3:30am 351 0 G 1 55° 92% - - 53° 60.9° 54.4° - - -
5/24 3:20am 82 1 G 3 55° 91% - - 52° 60.9° 54.4° - - -
5/24 3:10am 25 0 G 1 55° 90% - - 52° 60.9° 54.4° - - -
5/24 3:00am 212 1 G 3 55° 89% - - 51° 60.9° 54.5° - - -
5/24 2:50am 216 1 G 2 55° 88% - - 52° 60.9° 54.7° - - -
5/24 2:40am 38 1 G 2 55° 88% - - 52° 60.9° 55° - - -
5/24 2:30am 28 0 G 1 56° 87% - - 52° 60.9° 55.3° - - -
5/24 2:20am 4 0 G 1 56° 87% - - 52° 60.9° 55.7° - - -
5/24 2:10am 0 0 G 0 56° 87% - - 52° 60.9° 56° - - -
5/24 2:00am 359 0 G 1 57° 87% - - 53° 60.9° 56.5° - - -
5/24 1:50am 43 0 G 1 57° 86% - - 53° 60.9° 56.5° - - -
5/24 1:40am 155 0 G 0 57° 86% - - 53° 60.9° 56.9° - - -
5/24 1:30am 41 0 G 1 57° 86% - - 53° 60.9° 57° - - -
5/24 1:20am 206 0 G 1 58° 85% - - 53° 60.9° 57.2° - - -
5/24 1:10am 16 0 G 1 58° 85% - - 54° 60.9° 57.8° - - -
5/24 1:00am 9 1 G 2 59° 84% - - 54° 60.9° 58.2° - - -
5/24 12:50am 2 1 G 2 59° 84% - - 54° 60.9° 58.6° - - -
5/24 12:40am 85 1 G 2 59° 83% - - 54° 60.9° 58.8° - - -
5/24 12:30am 307 1 G 3 60° 82% - - 54° 60.9° 59.3° - - -
5/24 12:20am 359 1 G 3 60° 82% - - 55° 60.9° 60° - - -
5/24 12:10am 80 1 G 2 60° 81% - - 55° 60.9° 60° - - -
5/24 12:00am 167 1 G 2 61° 80% - - 54° 89.3° 54.8° - - -
5/23 11:50pm 183 1 G 2 61° 79% - - 54° 89.3° 54.8° - - -
5/23 11:40pm 217 1 G 3 61° 79% - - 55° 89.3° 54.8° - - -
5/23 11:30pm 282 1 G 2 61° 78% - - 54° 89.3° 54.8° - - -
5/23 11:20pm 49 0 G 1 62° 76% - - 54° 89.3° 54.8° - - -
5/23 11:10pm 22 1 G 2 63° 74% - - 55° 89.3° 54.8° - - -
5/23 11:00pm 348 1 G 4 63° 74% - - 55° 89.3° 54.8° - - -
5/23 10:50pm 29 2 G 4 63° 75% - - 55° 89.3° 54.8° - - -
5/23 10:40pm 39 1 G 2 63° 73% - - 55° 89.3° 54.8° - - -
5/23 10:30pm 6 1 G 3 64° 72% - - 55° 89.3° 54.8° - - -
5/23 10:20pm 14 1 G 3 64° 73% - - 55° 89.3° 54.8° - - -
5/23 10:10pm 49 1 G 1 64° 72% - - 55° 89.3° 54.8° - - -
5/23 10:00pm 41 1 G 2 65° 71% - - 55° 89.3° 54.8° - - -
5/23 9:50pm 35 1 G 2 66° 69% - - 55° 89.3° 54.8° - - -
5/23 9:40pm 67 0 G 1 66° 67% - - 55° 89.3° 54.8° - - -
5/23 9:30pm 45 0 G 2 67° 66% - - 55° 89.3° 54.8° - - -
5/23 9:20pm 129 2 G 5 68° 64% - - 55° 89.3° 54.8° - - -
5/23 9:10pm 155 2 G 4 68° 63% - - 55° 89.3° 54.8° - - -
5/23 9:00pm 140 3 G 7 69° 61% - - 55° 89.3° 54.8° - - -
5/23 8:50pm 156 3 G 7 69° 61% - - 55° 89.3° 54.8° - - -
5/23 8:40pm 105 1 G 4 69° 62% - - 55° 89.3° 54.8° - - -
5/23 8:30pm 81 1 G 1 70° 61% - - 56° 89.3° 54.8° - - -
5/23 8:20pm 55 1 G 2 70° 59% - - 56° 89.3° 54.8° - - -
5/23 8:10pm 95 0 G 1 71° 58% - - 56° 89.3° 54.8° - - -
5/23 8:00pm 290 1 G 2 73° 55% - - 56° 89.3° 54.8° - - -
5/23 7:50pm 143 0 G 2 74° 53% - - 55° 89.3° 54.8° - - -
5/23 7:40pm 262 1 G 3 74° 52% - - 55° 89.3° 54.8° - - -
5/23 7:30pm 233 1 G 3 75° 50% - - 55° 89.3° 54.8° - - -
5/23 7:20pm 183 1 G 3 76° 48% - - 55° 89.3° 54.8° - - -
5/23 7:10pm 196 2 G 5 76° 48% - - 55° 89.3° 54.8° - - -
5/23 7:00pm 196 2 G 4 77° 46% - - 55° 89.3° 54.8° - - -
5/23 6:50pm 204 3 G 6 78° 45% - - 55° 89.3° 54.8° - - -
5/23 6:40pm 221 3 G 5 79° 43% - - 54° 89.3° 54.8° - - -
5/23 6:30pm 227 3 G 7 80° 40% - - 54° 89.3° 54.8° - - -
5/23 6:20pm 219 3 G 6 81° 37% - - 53° 89.3° 54.8° - - -
5/23 6:10pm 219 3 G 8 82° 37% - - 53° 89.3° 54.8° - - -
5/23 6:00pm 196 4 G 8 84° 33% - - 51° 89.3° 54.8° - - -
5/23 5:50pm 261 4 G 9 85° 27% - - 47° 89.3° 54.8° - - -
5/23 5:40pm 257 3 G 9 85° 27% - - 47° 89.3° 54.8° - - -
5/23 5:30pm 251 5 G 9 85° 28% - - 48° 89.3° 54.8° - - -
5/23 5:20pm 252 5 G 10 85° 28% - - 49° 89.3° 54.8° - - -
5/23 5:10pm 250 4 G 10 86° 29% - - 50° 89.3° 54.8° - - -
5/23 5:00pm 261 4 G 8 85° 29% - - 50° 89.3° 54.8° - - -
5/23 4:50pm 248 3 G 8 85° 30% - - 50° 89.3° 54.8° - - -
5/23 4:40pm 247 5 G 11 85° 30% - - 50° 89.3° 54.8° - - -
5/23 4:30pm 247 4 G 8 84° 31% - - 50° 89.3° 54.8° - - -
5/23 4:20pm 248 5 G 10 84° 31% - - 50° 89.3° 54.8° - - -
5/23 4:10pm 255 4 G 10 84° 31% - - 50° 89.3° 54.8° - - -
5/23 4:00pm 271 3 G 7 83° 32% - - 50° 89.3° 54.8° - - -
5/23 3:50pm 264 3 G 7 83° 33% - - 51° 89.3° 54.8° - - -
5/23 3:40pm 250 3 G 7 83° 34% - - 52° 89.3° 54.8° - - -
5/23 3:30pm 290 4 G 9 82° 36% - - 52° 89.3° 54.8° - - -
5/23 3:20pm 316 3 G 10 81° 40% - - 55° 89.3° 54.8° - - -
5/23 3:10pm 304 4 G 10 81° 41% - - 55° 89.3° 54.8° - - -
5/23 3:00pm 271 3 G 8 81° 42% - - 56° 89.3° 54.8° - - -
5/23 2:50pm 298 4 G 10 80° 44% - - 56° 89.3° 54.8° - - -
5/23 2:40pm 294 5 G 13 80° 44% - - 56° 89.3° 54.8° - - -
5/23 2:30pm 286 4 G 9 80° 44% - - 56° 89.3° 54.8° - - -
5/23 2:20pm 286 5 G 11 79° 45% - - 56° 89.3° 54.8° - - -
5/23 2:10pm 287 6 G 14 79° 46% - - 57° 89.3° 54.8° - - -
5/23 2:00pm 271 6 G 12 79° 46% - - 57° 89.3° 54.8° - - -
5/23 1:50pm 278 6 G 15 80° 45% - - 57° 89.3° 54.8° - - -
5/23 1:40pm 272 5 G 12 80° 45% - - 57° 89.3° 54.8° - - -
5/23 1:30pm 290 6 G 15 80° 45% - - 57° 89.3° 54.8° - - -
5/23 1:20pm 276 6 G 13 80° 44% - - 57° 89.3° 54.8° - - -
5/23 1:10pm 271 5 G 11 81° 43% - - 56° 89.3° 54.8° - - -
5/23 1:00pm 275 5 G 11 82° 42% - - 56° 89.3° 54.8° - - -
5/23 12:50pm 241 5 G 12 82° 41% - - 56° 89.3° 54.8° - - -
5/23 12:40pm 276 4 G 12 82° 40% - - 56° 89.3° 54.8° - - -
5/23 12:30pm 281 5 G 12 82° 39% - - 55° 89.3° 54.8° - - -
5/23 12:20pm 279 6 G 16 83° 38% - - 55° 89.3° 54.8° - - -
5/23 12:10pm 266 5 G 13 85° 34% - - 54° 89.3° 54.8° - - -
5/23 12:00pm 237 5 G 11 87° 28% - - 49° 89.3° 54.8° - - -
5/23 11:50am 287 4 G 10 87° 22% - - 43° 89.3° 54.8° - - -
5/23 11:40am 267 4 G 12 88° 21% - - 43° 89.3° 54.8° - - -
5/23 11:30am 271 4 G 12 87° 22% - - 44° 89.3° 54.8° - - -
5/23 11:20am 283 5 G 11 87° 25% - - 47° 89.3° 54.8° - - -
5/23 11:10am 278 5 G 11 87° 25% - - 47° 89.3° 54.8° - - -
5/23 11:00am 227 2 G 7 89° 21% - - 44° 89.3° 54.8° - - -
5/23 10:50am 200 3 G 6 89° 21% - - 43° 89.2° 54.8° - - -
5/23 10:40am 200 2 G 5 88° 21% - - 43° 88.8° 54.8° - - -
5/23 10:30am 153 2 G 4 87° 22% - - 43° 87.9° 54.8° - - -
5/23 10:20am 108 2 G 4 85° 22% - - 42° 86.2° 54.8° - - -
5/23 10:10am 145 2 G 4 85° 23% - - 42° 85.3° 54.8° - - -
5/23 10:00am 180 2 G 4 83° 25% - - 44° 84° 54.8° - - -
5/23 9:50am 209 2 G 5 82° 25% - - 43° 82.4° 54.8° - - -
5/23 9:40am 178 2 G 4 82° 25% - - 43° 82.1° 54.8° - - -
5/23 9:30am 176 1 G 4 81° 26% - - 42° 81.4° 54.8° - - -
5/23 9:20am 175 1 G 2 79° 29% - - 44° 79.7° 54.8° - - -
5/23 9:10am 141 1 G 2 77° 33% - - 46° 78.1° 54.8° - - -
5/23 9:00am 141 2 G 3 75° 35% - - 45° 75.5° 54.8° - - -
5/23 8:50am 175 1 G 2 74° 35% - - 44° 74.7° 54.8° - - -
5/23 8:40am 142 1 G 2 71° 40% - - 46° 72.9° 54.8° - - -
5/23 8:30am 113 1 G 2 68° 50% - - 49° 69.5° 54.8° - - -
5/23 8:20am 90 1 G 2 67° 53% - - 50° 68.2° 54.8° - - -
5/23 8:10am 111 0 G 2 64° 60% - - 50° 66.3° 54.8° - - -
5/23 8:00am 137 1 G 2 62° 67% - - 51° 62.5° 54.8° - - -
5/23 7:50am 146 1 G 2 60° 71% - - 51° 61.4° 54.8° - - -
5/23 7:40am 190 1 G 2 60° 71% - - 50° 61° 54.8° - - -
5/23 7:30am 211 0 G 1 60° 69% - - 50° 61° 54.8° - - -
5/23 7:20am 198 0 G 1 61° 67% - - 50° 61° 54.8° - - -
5/23 7:10am 189 0 G 2 61° 66% - - 49° 61° 54.8° - - -
5/23 7:00am 355 0 G 1 59° 65% - - 47° 60.3° 54.8° - - -
5/23 6:50am 36 1 G 2 57° 71% - - 48° 59.1° 54.8° - - -
5/23 6:40am 20 2 G 6 57° 70% - - 47° 59.1° 54.8° - - -
5/23 6:30am 0 2 G 5 56° 72% - - 47° 59.1° 54.8° - - -
5/23 6:20am 29 2 G 4 56° 74% - - 48° 59.1° 54.8° - - -
5/23 6:10am 23 3 G 4 56° 73% - - 47° 59.1° 54.8° - - -
5/23 6:00am 31 2 G 5 56° 76% - - 48° 59.1° 54.8° - - -